Time;durP1;ratioP1;P1;durP2;ratioP2;P2;SDS_P1;SDS_P2;PMS_P1;PMS_P2;Temp;Humidity;BMP_temperature;BMP_pressure;BME280_temperature;BME280_humidity;BME280_pressure;Samples;Min_cycle;Max_cycle;Signal;HPM_P1;HPM_P2
2023/11/19 00:02:19;;;;;;;10.60;6.23;;;8.00;39.60;;;;;;4975038;28;20267;-69
2023/11/19 00:04:44;;;;;;;10.00;6.00;;;8.00;40.60;;;;;;4974791;28;20931;-69
2023/11/19 00:07:12;;;;;;;9.33;6.10;;;8.00;40.30;;;;;;4989916;28;20211;-68
2023/11/19 00:09:37;;;;;;;9.47;5.80;;;8.00;40.60;;;;;;4974627;28;20185;-68
2023/11/19 00:12:04;;;;;;;7.00;5.50;;;8.10;40.70;;;;;;4974666;28;20815;-69
2023/11/19 00:14:30;;;;;;;5.60;4.57;;;8.10;40.70;;;;;;4974172;28;20552;-68
2023/11/19 00:16:56;;;;;;;8.57;5.50;;;8.10;40.70;;;;;;4973686;28;20491;-68
2023/11/19 00:19:21;;;;;;;6.07;4.80;;;8.10;41.60;;;;;;4988612;28;20921;-68
2023/11/19 00:21:47;;;;;;;5.63;4.43;;;8.10;40.70;;;;;;4988592;28;20196;-69
2023/11/19 00:24:13;;;;;;;5.60;4.40;;;8.20;41.60;;;;;;4973580;28;20200;-69
2023/11/19 00:26:41;;;;;;;7.13;5.63;;;8.10;42.70;;;;;;4973734;28;21912;-68
2023/11/19 00:29:07;;;;;;;6.20;4.67;;;8.20;43.70;;;;;;4975145;28;20554;-69
2023/11/19 00:31:32;;;;;;;6.30;4.30;;;8.30;45.80;;;;;;4974294;28;20477;-68
2023/11/19 00:33:58;;;;;;;7.50;3.00;;;8.40;46.60;;;;;;4973485;28;20219;-67
2023/11/19 00:36:23;;;;;;;3.97;2.73;;;8.50;48.20;;;;;;4973447;28;20181;-67
2023/11/19 00:38:50;;;;;;;6.03;2.60;;;8.60;48.30;;;;;;4989467;28;20693;-68
2023/11/19 00:41:16;;;;;;;5.43;3.43;;;8.70;51.50;;;;;;4973425;28;20311;-68
2023/11/19 00:43:42;;;;;;;4.37;2.30;;;8.80;50.00;;;;;;4973474;28;20555;-68
2023/11/19 00:46:08;;;;;;;5.17;3.20;;;8.90;50.20;;;;;;4988520;28;20527;-68
2023/11/19 00:48:34;;;;;;;2.80;1.87;;;9.00;49.40;;;;;;4973846;28;20262;-69
2023/11/19 00:50:59;;;;;;;2.87;1.43;;;9.00;49.70;;;;;;4973414;28;20541;-68
2023/11/19 00:53:25;;;;;;;3.10;1.50;;;9.10;50.90;;;;;;4973494;28;20753;-69
2023/11/19 00:55:50;;;;;;;2.13;1.77;;;9.30;50.90;;;;;;4973191;28;20177;-69
2023/11/19 00:58:17;;;;;;;1.80;1.00;;;9.40;50.20;;;;;;4973250;28;20698;-69
2023/11/19 01:00:43;;;;;;;4.57;1.50;;;9.40;48.30;;;;;;4988207;28;20614;-68
2023/11/19 01:03:09;;;;;;;1.77;1.10;;;9.50;49.10;;;;;;4973243;28;20424;-68
2023/11/19 01:05:34;;;;;;;2.23;1.03;;;9.50;46.80;;;;;;4973318;28;20417;-67
2023/11/19 01:08:00;;;;;;;2.00;0.93;;;9.50;46.50;;;;;;4973142;28;20208;-68
2023/11/19 01:10:25;;;;;;;1.63;0.83;;;9.50;48.00;;;;;;4973096;28;20212;-68
2023/11/19 01:12:51;;;;;;;1.60;0.80;;;9.60;47.90;;;;;;4973549;28;20181;-68
2023/11/19 01:15:18;;;;;;;1.50;0.70;;;9.70;47.10;;;;;;4973934;28;20209;-68
2023/11/19 01:17:44;;;;;;;1.93;0.87;;;9.70;45.50;;;;;;4973442;28;20432;-68
2023/11/19 01:20:12;;;;;;;2.83;1.43;;;9.80;47.20;;;;;;4973680;28;20514;-68
2023/11/19 01:22:38;;;;;;;1.87;1.20;;;9.80;44.40;;;;;;4971951;28;20181;-68
2023/11/19 01:25:05;;;;;;;1.53;0.80;;;9.90;45.20;;;;;;4973174;28;20787;-69
2023/11/19 01:27:30;;;;;;;1.90;0.87;;;9.90;44.50;;;;;;4973537;28;20283;-69
2023/11/19 01:29:56;;;;;;;1.70;0.90;;;9.90;44.10;;;;;;4973051;28;20530;-68
2023/11/19 01:32:23;;;;;;;2.00;1.17;;;9.90;43.10;;;;;;4971841;28;20212;-68
2023/11/19 01:34:49;;;;;;;3.57;1.13;;;10.00;42.00;;;;;;4972868;28;20663;-68
2023/11/19 01:37:15;;;;;;;2.03;1.13;;;9.90;43.60;;;;;;4972727;28;20464;-68
2023/11/19 01:39:45;;;;;;;2.00;1.03;;;9.80;44.20;;;;;;4973180;28;20630;-68
2023/11/19 01:42:12;;;;;;;1.80;0.90;;;9.90;44.10;;;;;;4973320;28;20415;-68
2023/11/19 01:44:37;;;;;;;3.00;1.23;;;9.90;43.60;;;;;;4972541;28;20918;-68
2023/11/19 01:47:03;;;;;;;1.83;0.60;;;9.90;43.50;;;;;;4972583;28;20527;-67
2023/11/19 01:49:31;;;;;;;1.70;0.83;;;9.90;45.00;;;;;;4987715;28;20793;-68
2023/11/19 01:51:57;;;;;;;3.03;0.90;;;10.00;44.90;;;;;;4987978;28;20425;-68
2023/11/19 01:54:23;;;;;;;1.60;0.60;;;10.10;45.30;;;;;;4957013;29;20413;-67
2023/11/19 01:56:49;;;;;;;2.63;0.93;;;10.10;43.80;;;;;;4957235;28;20814;-68
2023/11/19 01:59:15;;;;;;;1.50;0.70;;;10.10;43.60;;;;;;4956969;29;20409;-68
2023/11/19 02:01:42;;;;;;;1.70;0.97;;;10.10;43.30;;;;;;4956927;28;20197;-68
2023/11/19 02:04:08;;;;;;;1.70;0.70;;;10.10;43.60;;;;;;4975582;28;20482;-68
2023/11/19 02:06:40;;;;;;;1.70;0.70;;;10.10;45.10;;;;;;4987891;28;20436;-68
2023/11/19 02:09:07;;;;;;;1.80;0.87;;;10.10;46.50;;;;;;4956845;28;20493;-68
2023/11/19 02:11:34;;;;;;;2.00;1.10;;;10.20;45.00;;;;;;4987636;28;20474;-68
2023/11/19 02:14:00;;;;;;;1.40;0.67;;;10.20;45.40;;;;;;4971243;28;20963;-68
2023/11/19 02:16:26;;;;;;;2.47;0.70;;;10.20;45.50;;;;;;4961581;28;20435;-68
2023/11/19 02:18:51;;;;;;;1.67;0.70;;;10.20;44.10;;;;;;4975921;28;20417;-68
2023/11/19 02:21:18;;;;;;;1.70;0.77;;;10.10;43.30;;;;;;4976089;28;20304;-70
2023/11/19 02:23:43;;;;;;;1.80;0.70;;;10.20;46.50;;;;;;4975936;28;20173;-68
2023/11/19 02:26:36;;;;;;;2.57;0.80;;;10.20;44.00;;;;;;4975843;28;20440;-68
2023/11/19 02:29:02;;;;;;;1.40;0.60;;;10.20;42.60;;;;;;4975756;28;20432;-68
2023/11/19 02:31:28;;;;;;;1.40;0.60;;;10.20;44.30;;;;;;4975795;28;20460;-67
2023/11/19 02:33:54;;;;;;;2.33;1.07;;;10.20;44.60;;;;;;4975775;28;20479;-67
2023/11/19 02:36:21;;;;;;;1.93;1.00;;;10.20;45.40;;;;;;4990510;28;20188;-67
2023/11/19 02:38:47;;;;;;;1.47;0.63;;;10.20;45.00;;;;;;4975513;28;20424;-67
2023/11/19 02:41:14;;;;;;;2.80;1.03;;;10.20;44.50;;;;;;4975685;28;20427;-67
2023/11/19 02:43:39;;;;;;;1.50;0.63;;;10.30;44.50;;;;;;4990429;28;20185;-67
2023/11/19 02:46:08;;;;;;;1.90;0.80;;;10.30;43.10;;;;;;4975419;28;20519;-67
2023/11/19 02:48:38;;;;;;;1.73;0.70;;;10.30;43.30;;;;;;4975348;28;20231;-67
2023/11/19 02:51:04;;;;;;;1.70;0.80;;;10.30;43.30;;;;;;4975802;28;20506;-67
2023/11/19 02:53:32;;;;;;;1.50;0.60;;;10.30;43.90;;;;;;4975714;28;20857;-68
2023/11/19 02:56:06;;;;;;;1.90;0.97;;;10.30;43.60;;;;;;4975579;28;20424;-67
2023/11/19 02:58:31;;;;;;;1.50;0.90;;;10.30;44.00;;;;;;4974501;28;20457;-67
2023/11/19 03:00:57;;;;;;;1.57;0.60;;;10.20;45.50;;;;;;4986425;28;20434;-67
2023/11/19 03:03:38;;;;;;;1.50;0.80;;;10.20;46.10;;;;;;4965230;28;20440;-67
2023/11/19 03:06:05;;;;;;;1.30;0.57;;;10.20;46.00;;;;;;4975143;28;20416;-67
2023/11/19 03:08:30;;;;;;;1.50;0.70;;;10.20;46.00;;;;;;4975038;28;20444;-67
2023/11/19 03:10:56;;;;;;;1.50;0.80;;;10.20;47.70;;;;;;4975041;28;20896;-67
2023/11/19 03:13:21;;;;;;;1.93;0.80;;;10.20;47.70;;;;;;4974764;28;20181;-67
2023/11/19 03:15:47;;;;;;;1.30;0.57;;;10.30;48.30;;;;;;4974460;28;20547;-67
2023/11/19 03:18:13;;;;;;;1.90;1.00;;;10.40;47.50;;;;;;4974897;28;20197;-67
2023/11/19 03:20:38;;;;;;;1.30;0.60;;;10.30;47.80;;;;;;4974918;28;20181;-67
2023/11/19 03:23:04;;;;;;;1.50;0.70;;;10.30;48.00;;;;;;4974691;28;20182;-68
2023/11/19 03:25:36;;;;;;;1.40;0.70;;;10.40;47.60;;;;;;4974774;28;20640;-67
2023/11/19 03:28:03;;;;;;;1.40;0.60;;;10.30;47.50;;;;;;4974452;28;20598;-67
2023/11/19 03:30:30;;;;;;;1.73;0.70;;;10.40;48.40;;;;;;4973378;28;20494;-68
2023/11/19 03:32:56;;;;;;;1.30;0.57;;;10.40;48.10;;;;;;4974459;28;20412;-67
2023/11/19 03:35:23;;;;;;;1.80;0.80;;;10.40;48.30;;;;;;4974550;28;20857;-67
2023/11/19 03:37:48;;;;;;;1.40;0.57;;;10.40;48.30;;;;;;5005422;23;20509;-69
2023/11/19 03:40:14;;;;;;;1.53;0.60;;;10.50;48.80;;;;;;5011943;28;20936;-69
2023/11/19 03:42:40;;;;;;;1.30;0.50;;;10.50;47.50;;;;;;5013142;28;20184;-69
2023/11/19 03:45:10;;;;;;;1.30;0.60;;;10.50;48.10;;;;;;5012956;28;20421;-69
2023/11/19 03:47:35;;;;;;;1.67;0.83;;;10.40;48.30;;;;;;5005020;28;20206;-69
2023/11/19 03:50:02;;;;;;;1.40;0.60;;;10.50;49.70;;;;;;4991760;28;20952;-69
2023/11/19 03:52:28;;;;;;;1.50;0.70;;;10.50;50.00;;;;;;4974010;28;20224;-69
2023/11/19 03:54:55;;;;;;;1.77;0.70;;;10.50;49.90;;;;;;4973797;28;20829;-69
2023/11/19 03:57:20;;;;;;;1.57;0.60;;;10.50;48.30;;;;;;4974110;28;20193;-69
2023/11/19 03:59:46;;;;;;;2.63;0.80;;;10.50;48.60;;;;;;4973848;28;20894;-69
2023/11/19 04:02:12;;;;;;;1.77;0.80;;;10.50;48.90;;;;;;4973673;28;20413;-69
2023/11/19 04:04:38;;;;;;;1.30;0.50;;;10.50;48.30;;;;;;4992968;28;20173;-69
2023/11/19 04:07:05;;;;;;;1.87;0.70;;;10.50;48.40;;;;;;4993018;28;20216;-69
2023/11/19 04:09:32;;;;;;;1.27;0.53;;;10.60;49.60;;;;;;4992900;28;20960;-69
2023/11/19 04:11:58;;;;;;;1.47;0.70;;;10.70;48.50;;;;;;4992769;28;20428;-69
2023/11/19 04:14:24;;;;;;;1.77;0.90;;;10.70;48.50;;;;;;4992393;28;20827;-69
2023/11/19 04:16:50;;;;;;;1.40;0.50;;;10.70;47.00;;;;;;4992728;28;20199;-69
2023/11/19 04:19:16;;;;;;;1.90;0.80;;;10.70;46.50;;;;;;4992091;28;20185;-69
2023/11/19 04:21:42;;;;;;;1.20;0.50;;;10.70;47.00;;;;;;4992707;28;20414;-70
2023/11/19 04:24:12;;;;;;;1.77;0.70;;;10.70;47.00;;;;;;4992315;28;20192;-70
2023/11/19 04:26:41;;;;;;;1.77;0.60;;;10.80;47.80;;;;;;4992726;28;20448;-70
2023/11/19 04:29:08;;;;;;;1.30;0.50;;;10.80;46.10;;;;;;4991266;28;20440;-68
2023/11/19 04:31:34;;;;;;;1.40;0.50;;;10.90;46.10;;;;;;4992158;28;20463;-69
2023/11/19 04:34:00;;;;;;;1.23;0.43;;;10.90;44.90;;;;;;4971775;28;20433;-69
2023/11/19 04:36:26;;;;;;;1.30;0.50;;;10.90;45.30;;;;;;4973105;28;20185;-68
2023/11/19 04:38:51;;;;;;;1.30;0.50;;;10.90;45.60;;;;;;4972972;28;20443;-68
2023/11/19 04:41:17;;;;;;;1.30;0.50;;;10.90;44.90;;;;;;4973105;28;20184;-68
2023/11/19 04:43:42;;;;;;;1.40;0.60;;;10.90;44.70;;;;;;4972763;28;20181;-69
2023/11/19 04:46:09;;;;;;;1.40;0.50;;;10.90;44.60;;;;;;4991432;28;20187;-68
2023/11/19 04:48:35;;;;;;;1.37;0.50;;;10.90;45.00;;;;;;4992364;28;20260;-69
2023/11/19 04:51:01;;;;;;;1.27;0.47;;;11.00;44.40;;;;;;4992082;28;20482;-68
2023/11/19 04:53:26;;;;;;;1.30;0.50;;;11.00;43.70;;;;;;4992251;28;20647;-69
2023/11/19 04:55:52;;;;;;;1.23;0.40;;;11.10;43.40;;;;;;4992493;28;20701;-69
2023/11/19 04:58:17;;;;;;;1.23;0.40;;;11.10;43.80;;;;;;4989028;28;20197;-69
2023/11/19 05:00:43;;;;;;;2.07;0.77;;;11.10;42.80;;;;;;4973464;28;20177;-69
2023/11/19 05:03:08;;;;;;;1.33;0.40;;;11.10;43.00;;;;;;4972704;28;20178;-69
2023/11/19 05:05:34;;;;;;;1.40;0.50;;;11.20;42.20;;;;;;4971549;28;20280;-69
2023/11/19 05:07:59;;;;;;;1.43;0.57;;;11.20;41.10;;;;;;4972636;28;20219;-69
2023/11/19 05:10:25;;;;;;;1.50;0.83;;;11.20;40.50;;;;;;4972786;28;20395;-70
2023/11/19 05:12:51;;;;;;;1.30;0.40;;;11.30;40.20;;;;;;4977502;28;20187;-69
2023/11/19 05:15:17;;;;;;;2.10;0.43;;;11.30;39.30;;;;;;4992319;28;20180;-70
2023/11/19 05:17:43;;;;;;;1.30;0.40;;;11.30;39.00;;;;;;4992240;28;20442;-69
2023/11/19 05:20:13;;;;;;;1.60;0.70;;;11.30;38.90;;;;;;4992288;28;20497;-69
2023/11/19 05:22:43;;;;;;;1.30;0.50;;;11.30;38.70;;;;;;4990909;28;20183;-70
2023/11/19 05:25:09;;;;;;;1.47;0.50;;;11.40;37.80;;;;;;4993307;28;20836;-70
2023/11/19 05:27:36;;;;;;;1.70;0.57;;;11.40;37.40;;;;;;4987664;28;20454;-70
2023/11/19 05:30:02;;;;;;;3.30;0.60;;;11.40;36.90;;;;;;4976417;28;20454;-70
2023/11/19 05:32:28;;;;;;;1.30;0.50;;;11.50;36.50;;;;;;4975353;28;20443;-70
2023/11/19 05:34:53;;;;;;;1.30;0.50;;;11.50;36.30;;;;;;4977103;28;20419;-70
2023/11/19 05:37:19;;;;;;;1.30;0.40;;;11.50;37.50;;;;;;4976735;28;20221;-70
2023/11/19 05:39:45;;;;;;;1.40;0.50;;;11.60;37.20;;;;;;4976877;28;20184;-70
2023/11/19 05:42:11;;;;;;;1.40;0.50;;;11.60;35.60;;;;;;4987581;28;20445;-70
2023/11/19 05:44:37;;;;;;;1.40;0.50;;;11.50;35.80;;;;;;4995950;28;20181;-70
2023/11/19 05:47:03;;;;;;;1.50;0.60;;;11.60;37.40;;;;;;4995745;28;20202;-70
2023/11/19 05:49:29;;;;;;;1.30;0.40;;;11.60;36.10;;;;;;4995804;28;20506;-70
2023/11/19 05:51:55;;;;;;;1.40;0.50;;;11.70;35.40;;;;;;4995558;28;20463;-70
2023/11/19 05:54:21;;;;;;;1.40;0.50;;;11.70;35.50;;;;;;4995656;28;20186;-70
2023/11/19 05:56:49;;;;;;;1.80;0.80;;;11.70;35.30;;;;;;5011157;28;20421;-70
2023/11/19 05:59:17;;;;;;;1.60;0.57;;;11.70;35.70;;;;;;5015224;28;20175;-70
2023/11/19 06:01:43;;;;;;;1.47;0.53;;;11.70;35.60;;;;;;5015186;28;20414;-70
2023/11/19 06:04:09;;;;;;;1.30;0.50;;;11.70;35.40;;;;;;5014833;28;20427;-70
2023/11/19 06:06:35;;;;;;;1.40;0.50;;;11.70;35.40;;;;;;5015158;28;20438;-70
2023/11/19 06:09:02;;;;;;;1.30;0.40;;;11.70;35.70;;;;;;5014859;28;20515;-70
2023/11/19 06:11:27;;;;;;;1.50;0.50;;;11.80;36.00;;;;;;4979782;28;20461;-70
2023/11/19 06:13:53;;;;;;;1.40;0.40;;;11.70;34.10;;;;;;4974360;28;20512;-70
2023/11/19 06:16:19;;;;;;;1.40;0.50;;;11.80;34.70;;;;;;4975890;28;20413;-70
2023/11/19 06:18:45;;;;;;;1.30;0.50;;;11.80;34.10;;;;;;4975575;28;20197;-70
2023/11/19 06:21:12;;;;;;;1.50;0.50;;;11.90;34.50;;;;;;4987894;28;20417;-70
2023/11/19 06:23:38;;;;;;;1.40;0.50;;;11.90;32.60;;;;;;4995008;28;20427;-70
2023/11/19 06:26:05;;;;;;;1.53;0.70;;;11.90;32.60;;;;;;4995079;28;20480;-70
2023/11/19 06:28:30;;;;;;;1.33;0.53;;;11.90;33.00;;;;;;4994944;28;20482;-70
2023/11/19 06:30:57;;;;;;;1.60;0.50;;;11.90;32.70;;;;;;4994882;28;20535;-70
2023/11/19 06:33:24;;;;;;;1.43;0.50;;;11.90;32.60;;;;;;4992633;28;20556;-70
2023/11/19 06:35:49;;;;;;;1.50;0.67;;;11.90;33.40;;;;;;4994666;28;20486;-70
2023/11/19 06:38:15;;;;;;;1.60;0.63;;;11.90;33.10;;;;;;4994634;28;20574;-69
2023/11/19 06:40:41;;;;;;;1.37;0.50;;;11.90;33.40;;;;;;4994626;28;20183;-69
2023/11/19 06:43:08;;;;;;;1.30;0.40;;;12.00;32.70;;;;;;4994727;28;20596;-69
2023/11/19 06:45:36;;;;;;;1.50;0.60;;;11.90;34.10;;;;;;4995065;28;20247;-69
2023/11/19 06:48:03;;;;;;;1.83;0.80;;;11.90;33.70;;;;;;4978949;28;20448;-69
2023/11/19 06:50:29;;;;;;;10.27;6.73;;;12.00;33.30;;;;;;4975130;28;20499;-70
2023/11/19 06:52:54;;;;;;;2.70;1.30;;;11.90;33.30;;;;;;4974683;28;20443;-69
2023/11/19 06:55:20;;;;;;;2.40;1.17;;;11.90;33.70;;;;;;4974816;28;20227;-69
2023/11/19 06:57:45;;;;;;;3.10;1.53;;;11.90;33.70;;;;;;4975088;28;20209;-69
2023/11/19 07:00:12;;;;;;;2.10;1.00;;;12.00;33.40;;;;;;4974497;28;20558;-69
2023/11/19 07:02:37;;;;;;;3.50;2.20;;;11.90;35.40;;;;;;4992464;28;20594;-69
2023/11/19 07:05:04;;;;;;;6.67;4.30;;;12.00;34.60;;;;;;4993947;28;20419;-69
2023/11/19 07:07:33;;;;;;;3.40;2.33;;;12.00;33.60;;;;;;4993710;28;20219;-70
2023/11/19 07:09:59;;;;;;;2.70;1.57;;;12.10;35.10;;;;;;4993758;28;20533;-69
2023/11/19 07:12:26;;;;;;;2.80;1.10;;;12.10;34.30;;;;;;4993763;28;20506;-69
2023/11/19 07:14:52;;;;;;;1.97;0.90;;;12.10;33.90;;;;;;4983366;28;20184;-69
2023/11/19 07:17:20;;;;;;;1.87;0.83;;;12.10;33.30;;;;;;4974218;28;20440;-69
2023/11/19 07:19:46;;;;;;;2.00;0.80;;;12.10;33.20;;;;;;4974202;28;20169;-69
2023/11/19 07:22:11;;;;;;;2.00;0.90;;;12.10;33.80;;;;;;4981149;28;20944;-69
2023/11/19 07:24:40;;;;;;;1.80;0.93;;;12.10;33.50;;;;;;4992973;28;20455;-70
2023/11/19 07:27:06;;;;;;;2.10;1.40;;;12.10;34.50;;;;;;4992390;28;20197;-69
2023/11/19 07:29:32;;;;;;;2.17;0.83;;;12.20;33.30;;;;;;4989121;28;20503;-69
2023/11/19 07:31:57;;;;;;;2.00;0.93;;;12.20;34.20;;;;;;4993228;28;20609;-69
2023/11/19 07:34:24;;;;;;;2.10;0.90;;;12.20;32.90;;;;;;4993220;28;20176;-69
2023/11/19 07:36:50;;;;;;;3.40;1.60;;;12.20;31.70;;;;;;4992915;28;20177;-69
2023/11/19 07:39:15;;;;;;;2.43;1.40;;;12.30;31.70;;;;;;4993006;28;20765;-69
2023/11/19 07:41:41;;;;;;;3.63;1.60;;;12.30;30.60;;;;;;4992855;28;20188;-69
2023/11/19 07:44:06;;;;;;;2.40;0.90;;;12.30;29.40;;;;;;4992645;28;20196;-69
2023/11/19 07:46:32;;;;;;;5.50;2.20;;;12.30;28.70;;;;;;4993153;28;20179;-69
2023/11/19 07:48:58;;;;;;;2.90;1.47;;;12.40;28.40;;;;;;4992455;28;20724;-71
2023/11/19 07:51:23;;;;;;;1.80;0.80;;;12.40;27.30;;;;;;4992631;28;20475;-69
2023/11/19 07:53:49;;;;;;;2.87;2.20;;;12.50;27.80;;;;;;4991855;28;20463;-69
2023/11/19 07:56:15;;;;;;;3.80;2.30;;;12.60;27.20;;;;;;4990227;28;20185;-69
2023/11/19 07:58:40;;;;;;;2.83;1.33;;;12.60;26.50;;;;;;4990659;28;20235;-69
2023/11/19 08:01:06;;;;;;;3.80;1.30;;;12.70;26.00;;;;;;4991837;28;20613;-69
2023/11/19 08:03:34;;;;;;;2.10;0.90;;;12.70;25.30;;;;;;4992686;28;20214;-69
2023/11/19 08:06:01;;;;;;;2.20;1.07;;;12.60;26.30;;;;;;4991998;28;20657;-70
2023/11/19 08:08:26;;;;;;;3.70;1.20;;;12.60;26.20;;;;;;4989532;28;20475;-70
2023/11/19 08:10:52;;;;;;;2.23;1.20;;;12.70;25.30;;;;;;4991213;28;20468;-69
2023/11/19 08:13:19;;;;;;;3.27;1.00;;;12.60;25.40;;;;;;4991128;28;20283;-69
2023/11/19 08:15:46;;;;;;;1.90;1.00;;;12.60;25.30;;;;;;4988364;28;20474;-69
2023/11/19 08:18:11;;;;;;;1.70;0.60;;;12.60;25.50;;;;;;4990972;28;20450;-69
2023/11/19 08:20:37;;;;;;;1.70;0.70;;;12.60;25.90;;;;;;4989968;28;20569;-69
2023/11/19 08:23:05;;;;;;;2.53;0.80;;;12.60;26.30;;;;;;4991140;28;20271;-69
2023/11/19 08:25:33;;;;;;;2.27;1.20;;;12.60;26.00;;;;;;4990467;28;20674;-69
2023/11/19 08:28:00;;;;;;;2.00;1.00;;;12.70;25.10;;;;;;4989066;28;21007;-70
2023/11/19 08:30:25;;;;;;;1.70;0.63;;;12.70;25.00;;;;;;4988601;28;20838;-69
2023/11/19 08:32:51;;;;;;;1.93;0.70;;;12.70;24.50;;;;;;4991323;28;20443;-69
2023/11/19 08:35:17;;;;;;;1.83;0.77;;;12.80;24.20;;;;;;4991212;28;20326;-69
2023/11/19 08:37:43;;;;;;;2.27;0.80;;;12.80;23.90;;;;;;4991021;28;20357;-69
2023/11/19 08:40:09;;;;;;;1.80;0.80;;;12.80;22.80;;;;;;4989448;28;20490;-69
2023/11/19 08:42:35;;;;;;;1.60;0.60;;;12.80;22.60;;;;;;4991150;28;20436;-70
2023/11/19 08:45:00;;;;;;;2.00;0.93;;;12.80;23.50;;;;;;4988992;28;20497;-68
2023/11/19 08:47:26;;;;;;;3.90;1.57;;;12.90;21.30;;;;;;4991239;28;20204;-67
2023/11/19 08:49:52;;;;;;;11.93;5.73;;;13.10;20.50;;;;;;4991128;28;20759;-68
2023/11/19 08:52:18;;;;;;;5.10;1.93;;;13.20;19.60;;;;;;4989073;28;20304;-68
2023/11/19 08:54:43;;;;;;;1.73;0.73;;;13.40;19.50;;;;;;4989545;28;20435;-68
2023/11/19 08:57:09;;;;;;;1.83;0.80;;;13.50;17.70;;;;;;4991741;28;20250;-68
2023/11/19 08:59:35;;;;;;;2.27;0.97;;;13.60;17.00;;;;;;4989119;28;20184;-68
2023/11/19 09:02:01;;;;;;;2.27;1.10;;;13.70;16.60;;;;;;4990207;28;20212;-68
2023/11/19 09:04:27;;;;;;;2.10;1.30;;;13.70;14.50;;;;;;4991121;28;20243;-68
2023/11/19 09:06:53;;;;;;;2.43;1.00;;;13.70;16.40;;;;;;4990750;28;20782;-68
2023/11/19 09:09:18;;;;;;;2.20;0.83;;;13.80;16.70;;;;;;4991207;28;20211;-68
2023/11/19 09:11:44;;;;;;;3.50;1.27;;;13.80;15.40;;;;;;4991638;28;20551;-68
2023/11/19 09:14:09;;;;;;;2.27;1.03;;;13.90;15.60;;;;;;4990992;28;20255;-68
2023/11/19 09:16:35;;;;;;;3.53;1.93;;;14.00;13.40;;;;;;4991873;28;20774;-68
2023/11/19 09:19:02;;;;;;;1.90;1.00;;;14.00;13.90;;;;;;4991248;28;20215;-68
2023/11/19 09:21:29;;;;;;;1.77;0.80;;;14.10;12.50;;;;;;4991760;28;20646;-67
2023/11/19 09:23:55;;;;;;;3.67;1.53;;;14.20;12.60;;;;;;4990127;28;20794;-68
2023/11/19 09:26:20;;;;;;;1.93;0.80;;;14.10;12.50;;;;;;4991244;28;20450;-68
2023/11/19 09:28:46;;;;;;;2.00;0.87;;;14.10;12.50;;;;;;4990900;28;20309;-68
2023/11/19 09:31:18;;;;;;;1.83;0.83;;;14.20;11.50;;;;;;4991272;28;20231;-68
2023/11/19 09:33:44;;;;;;;2.53;1.17;;;14.30;11.70;;;;;;4991491;28;20177;-68
2023/11/19 09:36:13;;;;;;;2.30;1.03;;;14.50;11.50;;;;;;4990234;28;20538;-68
2023/11/19 09:38:43;;;;;;;2.10;0.87;;;14.70;11.20;;;;;;4992905;28;20485;-69
2023/11/19 09:41:11;;;;;;;4.53;0.60;;;14.90;9.00;;;;;;4994673;28;20936;-69
2023/11/19 09:43:40;;;;;;;1.97;1.00;;;14.80;8.60;;;;;;4993545;28;20451;-69
2023/11/19 09:46:07;;;;;;;1.80;0.87;;;14.80;8.80;;;;;;4992079;28;20502;-69
2023/11/19 09:48:34;;;;;;;1.70;0.57;;;14.90;8.60;;;;;;4993874;28;20469;-66
2023/11/19 09:51:01;;;;;;;1.60;0.50;;;15.20;8.60;;;;;;4990106;28;20806;-69
2023/11/19 09:53:27;;;;;;;1.60;0.50;;;15.10;6.10;;;;;;4990681;28;20912;-70
2023/11/19 09:55:53;;;;;;;1.67;0.57;;;15.10;6.40;;;;;;4990579;28;20450;-70
2023/11/19 09:58:19;;;;;;;1.83;0.77;;;15.00;6.90;;;;;;4991258;28;20223;-69
2023/11/19 10:00:44;;;;;;;1.90;0.87;;;15.10;7.90;;;;;;5002628;28;20815;-70
2023/11/19 10:03:12;;;;;;;1.70;0.60;;;15.10;7.10;;;;;;4991529;28;20191;-70
2023/11/19 10:05:41;;;;;;;3.13;0.90;;;15.20;6.90;;;;;;4990253;28;20780;-69
2023/11/19 10:08:07;;;;;;;2.40;0.70;;;15.10;5.30;;;;;;4991545;28;20534;-69
2023/11/19 10:10:34;;;;;;;1.70;0.70;;;15.10;5.50;;;;;;4991655;28;20545;-68
2023/11/19 10:13:00;;;;;;;1.70;0.73;;;15.00;6.20;;;;;;4995059;28;20787;-68
2023/11/19 10:15:29;;;;;;;1.57;0.53;;;14.90;6.30;;;;;;4994672;28;20482;-68
2023/11/19 10:17:58;;;;;;;2.10;0.63;;;14.90;5.80;;;;;;4994130;28;20913;-69
2023/11/19 10:20:24;;;;;;;3.20;1.57;;;15.00;5.90;;;;;;4994504;28;20489;-68
2023/11/19 10:22:55;;;;;;;2.63;1.50;;;14.90;5.50;;;;;;4994240;28;20451;-68
2023/11/19 10:25:28;;;;;;;1.90;0.73;;;14.90;6.50;;;;;;4994533;28;20242;-68
2023/11/19 10:27:56;;;;;;;2.50;1.00;;;15.10;6.20;;;;;;4994712;28;20454;-69
2023/11/19 10:30:22;;;;;;;2.30;1.50;;;15.30;5.90;;;;;;4994067;28;20467;-68
2023/11/19 10:33:20;;;;;;;2.43;1.10;;;15.30;3.70;;;;;;4993835;28;20447;-69
2023/11/19 10:35:56;;;;;;;2.70;1.37;;;15.30;4.30;;;;;;4989116;28;20513;-68
2023/11/19 10:38:23;;;;;;;2.37;1.53;;;15.40;3.10;;;;;;4993355;28;20463;-69
2023/11/19 10:40:50;;;;;;;2.00;0.80;;;15.20;4.30;;;;;;4991291;28;20475;-68
2023/11/19 10:43:17;;;;;;;2.00;1.10;;;15.20;4.30;;;;;;4994167;28;20430;-68
2023/11/19 10:45:43;;;;;;;2.00;0.90;;;15.40;4.40;;;;;;4994403;28;20419;-68
2023/11/19 10:48:08;;;;;;;2.73;1.00;;;15.70;2.70;;;;;;4994400;28;20870;-68
2023/11/19 10:50:36;;;;;;;2.53;1.50;;;15.70;2.40;;;;;;4994423;28;20604;-68
2023/11/19 10:53:03;;;;;;;6.90;2.60;;;15.70;2.90;;;;;;4992724;28;20227;-69
2023/11/19 10:55:30;;;;;;;3.93;1.80;;;15.40;2.90;;;;;;4994307;28;20502;-68
2023/11/19 10:58:01;;;;;;;2.57;1.43;;;15.40;4.40;;;;;;4994042;28;20455;-68
2023/11/19 11:00:49;;;;;;;2.30;0.90;;;15.50;4.50;;;;;;4994180;28;20451;-68
2023/11/19 11:03:19;;;;;;;3.37;1.33;;;15.30;3.80;;;;;;4989652;28;20439;-68
2023/11/19 11:05:48;;;;;;;4.47;2.23;;;15.30;4.30;;;;;;4994075;28;20416;-68
2023/11/19 11:08:15;;;;;;;2.80;0.73;;;15.40;4.40;;;;;;4992281;28;20451;-68
2023/11/19 11:10:44;;;;;;;5.30;2.50;;;15.10;3.40;;;;;;4994196;28;20467;-68
2023/11/19 11:13:12;;;;;;;3.90;2.37;;;15.20;4.30;;;;;;4993692;28;20421;-68
2023/11/19 11:15:38;;;;;;;3.70;1.93;;;15.30;5.10;;;;;;4993903;28;20824;-68
2023/11/19 11:18:06;;;;;;;3.50;1.77;;;15.70;6.80;;;;;;4993790;28;20899;-68
2023/11/19 11:20:33;;;;;;;2.33;0.97;;;16.00;3.20;;;;;;4994271;28;20772;-68
2023/11/19 11:23:28;;;;;;;3.03;1.20;;;15.90;1.30;;;;;;4992498;28;20420;-68
2023/11/19 11:26:26;;;;;;;2.50;0.90;;;15.70;1.00;;;;;;4992411;28;20486;-68
2023/11/19 11:28:59;;;;;;;1.87;0.93;;;;;;;;;;4993585;28;20494;-68
2023/11/19 11:31:44;;;;;;;1.60;0.50;;;;;;;;;;4993436;28;20462;-68
2023/11/19 11:34:13;;;;;;;1.73;0.73;;;;;;;;;;4993245;28;20466;-68
2023/11/19 11:36:59;;;;;;;1.63;0.60;;;;;;;;;;4993316;28;20410;-69
2023/11/19 11:39:28;;;;;;;2.63;0.83;;;;;;;;;;5001549;28;20459;-67
2023/11/19 11:42:22;;;;;;;2.50;1.20;;;15.00;17.00;;;;;;4993828;28;20463;-73
2023/11/19 11:45:10;;;;;;;3.73;1.30;;;14.90;19.50;;;;;;4988550;28;20419;-68
2023/11/19 11:47:47;;;;;;;3.50;1.80;;;14.90;21.00;;;;;;4993237;28;20448;-68
2023/11/19 11:50:20;;;;;;;2.30;0.93;;;15.00;21.30;;;;;;4986028;28;20520;-69
2023/11/19 11:52:58;;;;;;;2.30;1.27;;;15.30;20.30;;;;;;4993273;28;20466;-68
2023/11/19 11:55:37;;;;;;;7.30;3.93;;;15.70;19.80;;;;;;4993147;28;20435;-68
2023/11/19 11:58:04;;;;;;;4.63;2.10;;;16.10;18.30;;;;;;4993240;28;20428;-68
2023/11/19 12:00:33;;;;;;;1.93;0.90;;;16.50;17.60;;;;;;4993467;28;20416;-68
2023/11/19 12:03:03;;;;;;;1.80;0.87;;;16.80;16.90;;;;;;4991620;28;20446;-70
2023/11/19 12:05:30;;;;;;;2.97;1.17;;;17.00;15.30;;;;;;4990462;28;20427;-69
2023/11/19 12:08:05;;;;;;;1.80;0.60;;;16.80;14.80;;;;;;4972971;28;20535;-70
2023/11/19 12:10:37;;;;;;;2.20;1.10;;;16.90;16.00;;;;;;4971599;28;20463;-70
2023/11/19 12:13:06;;;;;;;1.70;0.60;;;16.80;14.80;;;;;;4971708;28;20533;-69
2023/11/19 12:15:32;;;;;;;2.00;0.90;;;16.60;14.30;;;;;;4971634;28;20802;-69
2023/11/19 12:17:58;;;;;;;1.90;0.80;;;16.50;15.90;;;;;;4971519;28;20907;-69
2023/11/19 12:20:25;;;;;;;2.00;0.77;;;16.50;15.80;;;;;;4978148;28;20443;-69
2023/11/19 12:22:53;;;;;;;2.00;0.90;;;16.20;15.20;;;;;;4990808;28;20180;-70
2023/11/19 12:25:23;;;;;;;2.20;1.07;;;15.90;15.70;;;;;;4992684;28;20458;-69
2023/11/19 12:27:50;;;;;;;1.80;0.90;;;15.80;16.50;;;;;;4992665;28;20436;-69
2023/11/19 12:30:28;;;;;;;2.40;0.70;;;15.60;17.90;;;;;;4992759;28;20925;-70
2023/11/19 12:32:54;;;;;;;2.20;0.93;;;15.80;18.00;;;;;;4992453;28;20404;-70
2023/11/19 12:35:20;;;;;;;2.13;0.80;;;15.90;18.10;;;;;;4974416;28;20472;-69
2023/11/19 12:37:47;;;;;;;1.80;0.60;;;15.80;18.00;;;;;;4972959;28;20444;-69
2023/11/19 12:40:24;;;;;;;2.27;0.70;;;15.80;17.20;;;;;;4973115;28;20188;-70
2023/11/19 12:42:54;;;;;;;1.70;0.50;;;16.20;16.70;;;;;;4972948;28;20479;-70
2023/11/19 12:45:21;;;;;;;1.80;0.73;;;16.40;13.00;;;;;;4973007;28;20420;-70
2023/11/19 12:47:48;;;;;;;2.20;0.87;;;16.30;14.00;;;;;;4987209;28;20451;-69
2023/11/19 12:50:14;;;;;;;2.07;0.90;;;16.10;13.40;;;;;;4981588;28;20531;-69
2023/11/19 12:52:40;;;;;;;1.80;0.80;;;16.00;13.40;;;;;;4972868;28;20405;-70